KBNO/BNO METAR and TAF weather

Enter ICAO airport designator
Station Type Date Time Source
KBNO METAR 2019/06/18 16:53 UTC NOAA

KBNO 181653Z AUTO 31010KT 10SM CLR 23/03 A3015 RMK AO2 SLP177 T02280033


Station Type Date Time Source
KBNO Decoded METAR 2019/06/18 16:53 UTC NOAA

BURNS MUNICIPAL AIRPORT, OR, United States (KBNO) 43-36N 118-57W 1264M
Jun 18, 2019 - 12:53 PM EDT / 2019.06.18 1653 UTC
Wind: from the NW (310 degrees) at 12 MPH (10 KT):0
Visibility: 10 mile(s):0
Sky conditions: clear
Temperature: 73.0 F (22.8 C)
Dew Point: 37.9 F (3.3 C)
Relative Humidity: 27%
Pressure (altimeter): 30.15 in. Hg (1020 hPa)
ob: KBNO 181653Z AUTO 31010KT 10SM CLR 23/03 A3015 RMK AO2 SLP177 T02280033
cycle: 17

Station Type Date Time Source
KBNO TAF 2019/06/18 12:30 UTC NOAA

TAF KBNO 181129Z 1812/1912 29008KT P6SM FEW200
FM181900 28013G20KT P6SM SKC
FM190300 29008KT P6SM SKC

Example: see airport list